Time;durP1;ratioP1;P1;durP2;ratioP2;P2;SDS_P1;SDS_P2;PMS_P1;PMS_P2;Temp;Humidity;BMP_temperature;BMP_pressure;BME280_temperature;BME280_humidity;BME280_pressure;Samples;Min_cycle;Max_cycle;Signal;HPM_P1;HPM_P2
2023/02/14 00:00:17;;;;;;;66.60;40.57;;;5.60;72.50;;;;;;6244849;23;20032;-66
2023/02/14 00:02:43;;;;;;;64.87;39.17;;;5.60;72.60;;;;;;6245092;23;20079;-65
2023/02/14 00:05:09;;;;;;;60.30;37.53;;;5.60;72.60;;;;;;6245072;23;20028;-65
2023/02/14 00:07:35;;;;;;;58.37;33.87;;;5.60;73.00;;;;;;6245150;23;20062;-65
2023/02/14 00:10:00;;;;;;;49.53;30.63;;;5.50;73.20;;;;;;6218081;23;20005;-66
2023/02/14 00:12:26;;;;;;;49.47;32.67;;;5.50;73.40;;;;;;6244802;23;20000;-64
2023/02/14 00:17:36;;;;;;;42.27;29.40;;;5.50;73.70;;;;;;6244734;23;20077;-65
2023/02/14 00:20:01;;;;;;;45.33;27.37;;;5.50;73.90;;;;;;6244500;23;19996;-65
2023/02/14 00:22:27;;;;;;;43.90;27.33;;;5.50;74.00;;;;;;6244481;23;20004;-65
2023/02/14 00:24:53;;;;;;;39.00;24.53;;;5.50;73.90;;;;;;6244679;23;19996;-65
2023/02/14 00:27:18;;;;;;;44.47;25.90;;;5.50;73.90;;;;;;6244995;23;20015;-65
2023/02/14 00:29:44;;;;;;;40.23;26.13;;;5.50;73.90;;;;;;6245220;23;20004;-65
2023/02/14 00:32:10;;;;;;;39.13;24.93;;;5.50;73.70;;;;;;6245240;23;20027;-65
2023/02/14 00:34:35;;;;;;;37.13;25.03;;;5.40;73.70;;;;;;6247421;23;20004;-65
2023/02/14 00:37:02;;;;;;;41.10;25.37;;;5.40;73.80;;;;;;6247019;23;20007;-65
2023/02/14 00:39:28;;;;;;;39.10;26.13;;;5.40;74.00;;;;;;6246987;23;20132;-63
2023/02/14 00:41:53;;;;;;;41.97;25.03;;;5.40;73.90;;;;;;6247182;23;20031;-65
2023/02/14 00:44:19;;;;;;;42.37;25.63;;;5.30;73.80;;;;;;6246902;23;20003;-64
2023/02/14 00:46:45;;;;;;;39.13;24.47;;;5.30;73.80;;;;;;6247191;23;20079;-66
2023/02/14 00:49:11;;;;;;;37.70;24.17;;;5.30;73.80;;;;;;6247008;23;20005;-65
2023/02/14 00:51:37;;;;;;;40.43;25.23;;;5.30;73.90;;;;;;6246616;23;20383;-65
2023/02/14 00:54:02;;;;;;;39.67;24.70;;;5.20;73.80;;;;;;6246979;23;20063;-64
2023/02/14 00:56:28;;;;;;;41.33;24.00;;;5.20;73.70;;;;;;6247102;23;20086;-65
2023/02/14 00:58:54;;;;;;;44.57;25.17;;;5.20;73.80;;;;;;6247060;23;20007;-64
2023/02/14 01:01:19;;;;;;;36.27;22.87;;;5.10;73.70;;;;;;6246435;23;20375;-65
2023/02/14 01:03:45;;;;;;;32.03;20.80;;;5.10;73.80;;;;;;6246665;23;20374;-65
2023/02/14 01:06:11;;;;;;;32.57;20.70;;;5.10;74.20;;;;;;6246332;23;20372;-65
2023/02/14 01:08:37;;;;;;;32.70;21.70;;;5.10;74.50;;;;;;6246741;23;20370;-65
2023/02/14 01:11:12;;;;;;;31.03;19.53;;;5.00;74.80;;;;;;6246684;23;20022;-65
2023/02/14 01:13:38;;;;;;;34.80;20.30;;;5.10;75.20;;;;;;6246871;23;20004;-65
2023/02/14 01:16:06;;;;;;;30.20;20.10;;;5.10;75.30;;;;;;6246616;23;20115;-65
2023/02/14 01:18:33;;;;;;;36.27;20.77;;;5.10;75.20;;;;;;6246447;23;20012;-64
2023/02/14 01:21:13;;;;;;;32.83;20.03;;;5.10;75.10;;;;;;6246896;23;20000;-64
2023/02/14 01:23:38;;;;;;;32.13;20.23;;;5.10;75.10;;;;;;6244418;23;20458;-65
2023/02/14 01:26:06;;;;;;;32.70;19.77;;;5.00;75.10;;;;;;6243197;23;20004;-65
2023/02/14 01:28:32;;;;;;;31.17;19.60;;;5.00;75.20;;;;;;6244584;23;20443;-65
2023/02/14 01:31:09;;;;;;;28.13;17.60;;;5.00;75.10;;;;;;6246644;23;20001;-66
2023/02/14 01:33:35;;;;;;;30.23;16.47;;;5.00;75.30;;;;;;6246822;23;20004;-65
2023/02/14 01:36:01;;;;;;;23.83;16.83;;;4.90;75.60;;;;;;6246109;23;20004;-64
2023/02/14 01:38:26;;;;;;;27.30;18.63;;;4.90;75.20;;;;;;6246307;23;20083;-65
2023/02/14 01:40:52;;;;;;;34.03;19.77;;;4.90;75.30;;;;;;6246535;23;20026;-65
2023/02/14 01:43:18;;;;;;;32.50;20.87;;;4.90;75.30;;;;;;6246609;23;20000;-64
2023/02/14 01:45:43;;;;;;;28.67;18.37;;;4.90;75.20;;;;;;6245741;23;20004;-65
2023/02/14 01:48:09;;;;;;;33.00;19.73;;;4.90;75.30;;;;;;6217538;23;20451;-66
2023/02/14 01:50:42;;;;;;;33.30;20.07;;;4.90;75.30;;;;;;6243073;23;20008;-66
2023/02/14 01:53:25;;;;;;;40.70;23.95;;;4.90;75.20;;;;;;6243643;23;20008;-66
2023/02/14 01:55:58;;;;;;;33.65;22.73;;;4.80;74.50;;;;;;6245778;23;20331;-65
2023/02/14 01:58:28;;;;;;;35.90;21.97;;;4.80;74.40;;;;;;6246158;23;20011;-66
2023/02/14 02:00:56;;;;;;;40.53;24.43;;;4.70;74.70;;;;;;6246076;23;20000;-65
2023/02/14 02:03:30;;;;;;;41.10;24.40;;;4.70;74.60;;;;;;6245727;23;20000;-65
2023/02/14 02:06:03;;;;;;;42.57;24.47;;;4.60;74.70;;;;;;6246076;23;19996;-65
2023/02/14 02:08:28;;;;;;;36.65;22.75;;;4.60;74.80;;;;;;6245712;23;20008;-66
2023/02/14 02:10:54;;;;;;;35.17;20.47;;;4.50;74.70;;;;;;6245494;23;19996;-64
2023/02/14 02:13:21;;;;;;;38.00;21.30;;;4.50;74.90;;;;;;6245861;23;20119;-65
2023/02/14 02:16:05;;;;;;;32.30;20.03;;;4.50;75.00;;;;;;6246338;23;20434;-66
2023/02/14 02:18:49;;;;;;;32.83;21.77;;;4.50;75.30;;;;;;6245610;23;20012;-65
2023/02/14 02:21:36;;;;;;;42.90;22.83;;;4.50;75.20;;;;;;6246042;23;20000;-65
2023/02/14 02:24:14;;;;;;;35.47;21.97;;;4.40;74.80;;;;;;6246224;23;20327;-65
2023/02/14 02:27:00;;;;;;;43.80;22.13;;;4.40;74.80;;;;;;6245778;23;20071;-65
2023/02/14 02:29:59;;;;;;;37.00;23.67;;;4.40;74.90;;;;;;6245795;23;20449;-65
2023/02/14 02:32:30;;;;;;;40.10;23.83;;;4.30;74.50;;;;;;6179107;23;20008;-64
2023/02/14 02:35:05;;;;;;;38.10;23.43;;;4.30;74.40;;;;;;6246012;23;20001;-66
2023/02/14 02:37:45;;;;;;;37.13;22.37;;;4.20;74.50;;;;;;6245974;23;20004;-65
2023/02/14 02:40:45;;;;;;;33.07;21.20;;;4.20;74.70;;;;;;6245326;23;20028;-66
2023/02/14 02:43:38;;;;;;;36.60;21.50;;;4.10;74.90;;;;;;6245535;23;20024;-66
2023/02/14 02:55:23;;;;;;;33.60;20.77;;;4.00;75.40;;;;;;6245006;23;20350;-66
2023/02/14 02:57:50;;;;;;;34.10;20.30;;;4.00;75.50;;;;;;6245498;23;20004;-66
2023/02/14 03:00:18;;;;;;;34.43;20.37;;;4.00;75.90;;;;;;6245379;23;20047;-67
2023/02/14 03:05:35;;;;;;;32.57;20.30;;;3.90;76.50;;;;;;6245443;23;20480;-66
2023/02/14 03:08:02;;;;;;;33.43;19.87;;;3.90;76.80;;;;;;6245463;23;20008;-64
2023/02/14 03:10:34;;;;;;;32.17;20.87;;;3.90;77.30;;;;;;6245417;23;20478;-66
2023/02/14 03:13:38;;;;;;;32.28;19.08;;;3.90;77.20;;;;;;6245524;23;20078;-66
2023/02/14 03:16:04;;;;;;;32.77;20.50;;;3.90;77.20;;;;;;6178882;23;20051;-66
2023/02/14 03:21:41;;;;;;;;;;;3.90;76.90;;;;;;6245948;23;20062;-66
2023/02/14 03:24:23;;;;;;;33.80;19.97;;;3.90;77.00;;;;;;6245556;23;19900;-65
2023/02/14 03:26:54;;;;;;;37.07;20.03;;;3.90;77.10;;;;;;6245551;23;19997;-65
2023/02/14 03:29:34;;;;;;;31.03;19.23;;;3.90;77.10;;;;;;6245452;23;20011;-66
2023/02/14 03:32:03;;;;;;;31.40;18.97;;;3.80;77.20;;;;;;6245136;23;20045;-66
2023/02/14 03:34:53;;;;;;;32.90;19.93;;;3.90;77.50;;;;;;6245334;23;20364;-66
2023/02/14 03:37:48;;;;;;;28.53;18.67;;;3.80;77.50;;;;;;6245334;23;20004;-65
2023/02/14 03:40:22;;;;;;;36.83;19.27;;;3.80;76.60;;;;;;6245234;23;20004;-66
2023/02/14 03:43:17;;;;;;;33.10;20.27;;;3.80;77.40;;;;;;6245321;23;20046;-66
2023/02/14 03:46:16;;;;;;;34.43;19.97;;;3.80;77.70;;;;;;6245070;23;20015;-66
2023/02/14 03:48:43;;;;;;;31.57;20.07;;;3.70;77.60;;;;;;6244250;23;20408;-66
2023/02/14 03:51:12;;;;;;;31.43;20.27;;;3.70;77.60;;;;;;6244975;23;20004;-66
2023/02/14 03:53:43;;;;;;;31.70;19.23;;;3.70;77.80;;;;;;6245159;23;20079;-66
2023/02/14 03:56:30;;;;;;;31.07;19.20;;;3.80;77.60;;;;;;6245105;23;20000;-66
2023/02/14 03:58:59;;;;;;;32.27;20.50;;;3.70;77.30;;;;;;6245194;23;20023;-66
2023/02/14 04:01:37;;;;;;;31.17;19.70;;;3.70;77.30;;;;;;6244627;23;20341;-66
2023/02/14 04:04:06;;;;;;;27.37;19.17;;;3.70;77.40;;;;;;6244764;23;20431;-66
2023/02/14 04:06:32;;;;;;;30.30;18.60;;;3.70;77.70;;;;;;6245083;23;20004;-66
2023/02/14 04:08:57;;;;;;;31.27;19.10;;;3.70;77.80;;;;;;6246616;23;20330;-66
2023/02/14 04:11:23;;;;;;;29.47;19.10;;;3.70;77.50;;;;;;6247125;23;20032;-66
2023/02/14 04:13:49;;;;;;;30.27;18.77;;;3.70;77.50;;;;;;6247046;23;19996;-65
2023/02/14 04:16:14;;;;;;;32.10;19.20;;;3.60;77.30;;;;;;6247016;23;20031;-66
2023/02/14 04:21:24;;;;;;;39.20;17.97;;;3.60;77.60;;;;;;6247178;23;20461;-66
2023/02/14 04:23:50;;;;;;;30.83;18.47;;;3.50;77.60;;;;;;6247143;23;20000;-66
2023/02/14 04:26:16;;;;;;;33.00;18.53;;;3.50;77.80;;;;;;6247148;23;20000;-66
2023/02/14 04:28:41;;;;;;;30.93;18.57;;;3.50;78.00;;;;;;6246871;23;20066;-67
2023/02/14 04:31:09;;;;;;;32.87;17.53;;;3.50;78.30;;;;;;6247019;23;20003;-66
2023/02/14 04:33:34;;;;;;;29.87;17.13;;;3.50;78.30;;;;;;6247223;23;20334;-66
2023/02/14 04:36:00;;;;;;;30.00;18.37;;;3.40;78.40;;;;;;6246784;23;20061;-66
2023/02/14 04:38:26;;;;;;;30.87;17.40;;;3.40;78.50;;;;;;6246956;23;20024;-66
2023/02/14 04:40:52;;;;;;;30.93;18.03;;;3.40;78.90;;;;;;6246949;23;20422;-66
2023/02/14 04:43:18;;;;;;;27.23;17.90;;;3.40;79.00;;;;;;6247252;23;20471;-66
2023/02/14 04:45:44;;;;;;;29.37;17.80;;;3.40;78.90;;;;;;6246751;23;20001;-66
2023/02/14 04:48:10;;;;;;;34.13;17.70;;;3.40;78.50;;;;;;6246651;23;20020;-66
2023/02/14 04:50:35;;;;;;;31.93;19.03;;;3.40;78.40;;;;;;6246473;23;20000;-66
2023/02/14 04:53:01;;;;;;;28.37;17.73;;;3.40;78.40;;;;;;6246538;23;20007;-66
2023/02/14 04:55:27;;;;;;;33.23;17.67;;;3.30;78.30;;;;;;6246285;23;20001;-66
2023/02/14 04:57:53;;;;;;;27.70;17.37;;;3.30;78.60;;;;;;6246629;23;20366;-65
2023/02/14 05:00:19;;;;;;;30.10;17.00;;;3.30;78.90;;;;;;6246533;23;20103;-66
2023/02/14 05:02:45;;;;;;;29.73;16.97;;;3.30;79.40;;;;;;6246810;23;20008;-66
2023/02/14 05:05:10;;;;;;;33.77;20.17;;;3.30;79.40;;;;;;6246224;23;20438;-66
2023/02/14 05:07:36;;;;;;;33.63;18.77;;;3.30;79.80;;;;;;6246322;23;20008;-64
2023/02/14 05:10:03;;;;;;;33.27;19.83;;;3.30;79.80;;;;;;6246685;23;20007;-65
2023/02/14 05:12:29;;;;;;;29.33;19.17;;;3.40;79.80;;;;;;6246845;23;20333;-66
2023/02/14 05:14:56;;;;;;;33.13;19.90;;;3.30;79.90;;;;;;6246496;23;19996;-66
2023/02/14 05:17:22;;;;;;;34.97;19.13;;;3.30;80.50;;;;;;6246021;23;20015;-66
2023/02/14 05:19:47;;;;;;;30.40;18.83;;;3.30;79.80;;;;;;6245744;23;20498;-66
2023/02/14 05:22:13;;;;;;;29.97;16.83;;;3.40;79.70;;;;;;6246479;23;20003;-66
2023/02/14 05:24:39;;;;;;;32.13;17.87;;;3.30;79.90;;;;;;6246805;23;20059;-66
2023/02/14 05:27:04;;;;;;;29.37;16.93;;;3.30;80.00;;;;;;6246630;23;20390;-66
2023/02/14 05:29:30;;;;;;;32.97;17.80;;;3.40;80.30;;;;;;6246144;23;20035;-66
2023/02/14 05:31:55;;;;;;;35.20;18.77;;;3.30;80.40;;;;;;6246739;23;20091;-66
2023/02/14 05:34:21;;;;;;;27.53;17.07;;;3.30;80.40;;;;;;6246316;23;20079;-66
2023/02/14 05:36:47;;;;;;;35.23;17.33;;;3.30;80.30;;;;;;6246204;23;20047;-67
2023/02/14 05:39:13;;;;;;;28.93;17.20;;;3.30;80.10;;;;;;6246457;23;20004;-66
2023/02/14 05:41:40;;;;;;;31.97;16.43;;;3.30;79.90;;;;;;6245922;23;20003;-66
2023/02/14 05:44:05;;;;;;;32.73;16.27;;;3.30;79.70;;;;;;6246061;23;20004;-65
2023/02/14 05:46:31;;;;;;;29.57;16.37;;;3.30;79.50;;;;;;6246264;23;20024;-66
2023/02/14 05:48:57;;;;;;;36.07;17.17;;;3.20;79.50;;;;;;6246057;23;20435;-66
2023/02/14 05:51:23;;;;;;;26.67;16.20;;;3.20;79.30;;;;;;6245847;23;20004;-65
2023/02/14 05:53:48;;;;;;;25.20;15.40;;;3.20;79.30;;;;;;6245651;23;20075;-67
2023/02/14 05:56:14;;;;;;;24.63;15.67;;;3.20;79.60;;;;;;6246082;23;20000;-67
2023/02/14 05:58:40;;;;;;;24.30;14.63;;;3.20;79.80;;;;;;6246145;23;20004;-66
2023/02/14 06:01:05;;;;;;;33.67;14.57;;;3.20;80.50;;;;;;6246149;23;20028;-66
2023/02/14 06:03:31;;;;;;;22.93;14.37;;;3.10;80.30;;;;;;6246083;23;20004;-65
2023/02/14 06:05:56;;;;;;;21.80;14.30;;;3.10;80.60;;;;;;6245988;23;20004;-66
2023/02/14 06:08:22;;;;;;;23.27;15.43;;;3.10;81.10;;;;;;6245556;23;20019;-66
2023/02/14 06:10:48;;;;;;;29.00;19.20;;;3.10;81.40;;;;;;6246015;23;19996;-66
2023/02/14 06:13:14;;;;;;;31.37;18.50;;;3.10;81.90;;;;;;6245800;23;20004;-66
2023/02/14 06:15:39;;;;;;;31.53;20.67;;;3.10;82.00;;;;;;6245802;23;20430;-66
2023/02/14 06:18:05;;;;;;;24.67;17.33;;;3.10;81.90;;;;;;6245640;23;20016;-66
2023/02/14 06:20:31;;;;;;;24.53;14.83;;;3.20;81.90;;;;;;6245732;23;20435;-66
2023/02/14 06:22:57;;;;;;;21.80;13.33;;;3.20;81.90;;;;;;6245776;23;20075;-66
2023/02/14 06:25:23;;;;;;;26.07;13.30;;;3.20;81.70;;;;;;6245580;23;20032;-66
2023/02/14 06:27:50;;;;;;;20.70;13.13;;;3.20;81.50;;;;;;6245409;23;20012;-66
2023/02/14 06:30:17;;;;;;;25.53;13.43;;;3.20;81.40;;;;;;6245311;23;20004;-66
2023/02/14 06:32:43;;;;;;;24.77;14.60;;;3.20;81.40;;;;;;6245728;23;20000;-66
2023/02/14 06:35:08;;;;;;;25.37;14.17;;;3.20;81.20;;;;;;6245731;23;20003;-66
2023/02/14 06:37:34;;;;;;;32.70;14.73;;;3.20;81.00;;;;;;6245517;23;20458;-65
2023/02/14 06:40:00;;;;;;;31.70;15.80;;;3.20;80.60;;;;;;6245066;23;20066;-66
2023/02/14 06:42:26;;;;;;;34.23;16.30;;;3.20;80.50;;;;;;6245590;23;20066;-65
2023/02/14 06:44:52;;;;;;;31.37;16.83;;;3.20;80.20;;;;;;6245567;23;20441;-66
2023/02/14 06:47:18;;;;;;;28.50;16.27;;;3.20;79.90;;;;;;6245251;23;20065;-66
2023/02/14 06:49:43;;;;;;;33.57;16.70;;;3.20;79.80;;;;;;6245222;23;19996;-67
2023/02/14 06:52:10;;;;;;;29.53;17.00;;;3.10;80.00;;;;;;6245592;23;20007;-65
2023/02/14 06:54:35;;;;;;;35.57;16.63;;;3.10;80.00;;;;;;6245492;23;20415;-66
2023/02/14 06:57:01;;;;;;;29.53;16.70;;;3.10;80.40;;;;;;6244781;23;20015;-77
2023/02/14 06:59:27;;;;;;;27.17;15.20;;;3.10;80.50;;;;;;6241919;23;20434;-70
2023/02/14 07:01:52;;;;;;;30.57;15.63;;;3.10;81.00;;;;;;6242581;23;20005;-70
2023/02/14 07:04:18;;;;;;;30.43;17.60;;;3.10;81.30;;;;;;6245338;23;20026;-71
2023/02/14 07:06:46;;;;;;;38.07;16.90;;;3.10;81.60;;;;;;6246141;23;20006;-69
2023/02/14 07:09:16;;;;;;;38.87;16.50;;;3.10;81.90;;;;;;6244755;23;20095;-70
2023/02/14 07:11:45;;;;;;;35.20;17.63;;;3.10;82.50;;;;;;6245490;23;20000;-67
2023/02/14 07:14:11;;;;;;;47.43;19.40;;;3.10;81.90;;;;;;6245422;23;20438;-72
2023/02/14 07:16:38;;;;;;;37.20;19.20;;;3.20;82.30;;;;;;6245200;23;20068;-71
2023/02/14 07:19:03;;;;;;;42.77;20.77;;;3.30;82.20;;;;;;6244726;23;20022;-71
2023/02/14 07:21:30;;;;;;;35.70;19.63;;;3.30;82.20;;;;;;6245293;23;20016;-71
2023/02/14 07:23:56;;;;;;;40.57;20.53;;;3.30;82.30;;;;;;6245300;23;20010;-70
2023/02/14 07:26:21;;;;;;;33.20;19.63;;;3.40;82.30;;;;;;6245278;23;20003;-71
2023/02/14 07:28:48;;;;;;;37.73;19.57;;;3.50;82.00;;;;;;6244870;23;20019;-70
2023/02/14 07:31:14;;;;;;;35.37;19.37;;;3.60;82.10;;;;;;6242782;23;20000;-73
2023/02/14 07:33:40;;;;;;;34.33;20.57;;;3.70;82.10;;;;;;6242810;23;20007;-69
2023/02/14 07:36:07;;;;;;;35.53;20.20;;;3.80;82.30;;;;;;6244331;23;20001;-77
2023/02/14 07:38:34;;;;;;;34.77;20.83;;;3.80;82.30;;;;;;6244252;23;20015;-70
2023/02/14 07:40:59;;;;;;;39.03;21.17;;;3.90;82.50;;;;;;6244098;23;20419;-73
2023/02/14 07:43:25;;;;;;;39.80;20.43;;;4.00;82.80;;;;;;6243876;23;20004;-70
2023/02/14 07:45:51;;;;;;;44.97;20.10;;;4.10;82.50;;;;;;6244574;23;20004;-71
2023/02/14 07:48:17;;;;;;;34.00;19.00;;;4.20;83.00;;;;;;6244257;23;20004;-71
2023/02/14 07:50:43;;;;;;;35.07;16.90;;;4.30;82.20;;;;;;6181744;23;20023;-70
2023/02/14 07:53:09;;;;;;;40.17;16.90;;;4.40;82.00;;;;;;6244493;23;20024;-69
2023/02/14 07:55:34;;;;;;;33.30;17.13;;;4.40;82.00;;;;;;6244658;23;20031;-69
2023/02/14 07:58:00;;;;;;;36.33;17.10;;;4.50;82.20;;;;;;6244060;23;20490;-79
2023/02/14 08:00:26;;;;;;;34.80;17.03;;;4.50;82.10;;;;;;6244438;23;20005;-70
2023/02/14 08:02:54;;;;;;;33.90;16.30;;;4.60;82.10;;;;;;6244815;23;20000;-69
2023/02/14 08:05:21;;;;;;;26.70;15.67;;;4.70;82.10;;;;;;6244782;23;20000;-70
2023/02/14 08:07:47;;;;;;;31.67;15.47;;;4.70;82.30;;;;;;6244680;23;20009;-75
2023/02/14 08:10:13;;;;;;;23.40;14.33;;;4.80;82.40;;;;;;6244568;23;20024;-70
2023/02/14 08:12:57;;;;;;;24.37;14.97;;;4.90;82.20;;;;;;6245100;23;20066;-84
2023/02/14 08:18:09;;;;;;;30.37;15.23;;;5.10;81.70;;;;;;6245163;23;20439;-73
2023/02/14 08:20:35;;;;;;;27.40;15.00;;;5.10;81.80;;;;;;6244770;23;20415;-72
2023/02/14 08:23:00;;;;;;;22.53;12.70;;;5.30;82.10;;;;;;6244862;23;20047;-73
2023/02/14 08:25:26;;;;;;;21.43;13.30;;;5.40;81.80;;;;;;6245251;23;20058;-73
2023/02/14 08:27:54;;;;;;;26.47;13.43;;;5.40;81.60;;;;;;6244562;23;20046;-72
2023/02/14 08:30:20;;;;;;;21.93;13.60;;;5.50;81.80;;;;;;6245187;23;20000;-73
2023/02/14 08:32:45;;;;;;;20.33;13.13;;;5.60;81.90;;;;;;6245381;23;20008;-73
2023/02/14 08:35:11;;;;;;;20.70;13.23;;;5.70;81.90;;;;;;6245350;23;20004;-72
2023/02/14 08:37:37;;;;;;;20.33;13.67;;;5.80;82.10;;;;;;6245117;23;20066;-73
2023/02/14 08:40:03;;;;;;;24.50;13.53;;;5.80;81.80;;;;;;6245434;23;20000;-73
2023/02/14 08:42:28;;;;;;;21.33;12.77;;;6.00;81.60;;;;;;6244992;23;20434;-73
2023/02/14 08:44:54;;;;;;;25.03;12.27;;;6.00;81.60;;;;;;6245015;23;20012;-73
2023/02/14 08:47:20;;;;;;;20.23;13.00;;;6.10;81.50;;;;;;6245241;23;20051;-74
2023/02/14 08:49:45;;;;;;;22.37;12.53;;;6.20;81.20;;;;;;6245168;23;20058;-74
2023/02/14 08:52:11;;;;;;;23.73;13.60;;;6.20;81.10;;;;;;6243257;23;20000;-73
2023/02/14 08:54:37;;;;;;;24.17;12.93;;;6.30;81.20;;;;;;6244347;23;20026;-73
2023/02/14 08:57:02;;;;;;;21.50;12.50;;;6.40;81.20;;;;;;6246706;23;20003;-73
2023/02/14 08:59:28;;;;;;;23.13;13.37;;;6.50;81.10;;;;;;6246976;23;20015;-73
2023/02/14 09:01:54;;;;;;;29.70;12.47;;;6.60;80.80;;;;;;6247124;23;20031;-74
2023/02/14 09:04:19;;;;;;;21.37;13.10;;;6.70;80.70;;;;;;6247161;23;20322;-73
2023/02/14 09:06:45;;;;;;;22.53;13.70;;;6.80;80.60;;;;;;6246933;23;20488;-73
2023/02/14 09:09:11;;;;;;;24.30;13.70;;;6.80;80.40;;;;;;6246649;23;20039;-74
2023/02/14 09:11:37;;;;;;;23.20;13.20;;;6.90;80.40;;;;;;6246561;23;19997;-74
2023/02/14 09:14:02;;;;;;;31.43;13.13;;;7.00;80.20;;;;;;6246846;23;20066;-74
2023/02/14 09:16:28;;;;;;;27.17;13.20;;;7.10;79.70;;;;;;6246701;23;20309;-74
2023/02/14 09:18:55;;;;;;;25.33;13.23;;;7.20;79.30;;;;;;6246516;23;20016;-79
2023/02/14 09:21:24;;;;;;;22.47;13.13;;;7.30;79.30;;;;;;6246347;23;20007;-73
2023/02/14 09:23:50;;;;;;;28.03;12.60;;;7.40;79.10;;;;;;6246433;23;20032;-73
2023/02/14 09:26:17;;;;;;;25.13;11.27;;;7.40;78.70;;;;;;6246444;23;20000;-74
2023/02/14 09:28:43;;;;;;;22.17;12.57;;;7.60;78.40;;;;;;6246109;23;20047;-73
2023/02/14 09:31:12;;;;;;;20.83;12.47;;;7.70;77.90;;;;;;6246174;23;20003;-74
2023/02/14 09:36:23;;;;;;;18.00;11.80;;;7.90;77.00;;;;;;6246546;23;20099;-71
2023/02/14 09:38:48;;;;;;;20.63;12.00;;;8.00;76.90;;;;;;6246173;23;20031;-72
2023/02/14 09:41:29;;;;;;;19.77;10.50;;;8.10;76.60;;;;;;6246018;23;20027;-71
2023/02/14 09:44:01;;;;;;;23.47;11.40;;;8.20;76.10;;;;;;6246560;23;20000;-72
2023/02/14 09:46:28;;;;;;;22.40;10.63;;;8.30;75.50;;;;;;6246816;23;20000;-71
2023/02/14 09:48:56;;;;;;;22.23;11.27;;;8.40;75.10;;;;;;6246677;23;20012;-72
2023/02/14 09:51:28;;;;;;;16.00;11.00;;;8.50;74.90;;;;;;6246488;23;20323;-72
2023/02/14 09:54:17;;;;;;;18.20;11.17;;;8.60;74.30;;;;;;6246557;23;20426;-71
2023/02/14 09:56:49;;;;;;;14.97;9.87;;;8.80;73.80;;;;;;6247122;23;20032;-70
2023/02/14 09:59:50;;;;;;;20.57;10.77;;;8.90;73.50;;;;;;6246131;23;20008;-72
2023/02/14 10:02:40;;;;;;;14.10;9.60;;;9.00;72.90;;;;;;6246170;23;20000;-71
2023/02/14 10:05:17;;;;;;;15.77;8.97;;;9.10;72.50;;;;;;6246120;23;20358;-71
2023/02/14 10:08:14;;;;;;;14.77;8.00;;;9.20;71.70;;;;;;6246006;23;20062;-71
2023/02/14 10:10:46;;;;;;;13.70;8.00;;;9.30;70.90;;;;;;6246202;23;20020;-71
2023/02/14 10:13:36;;;;;;;14.10;8.82;;;9.40;70.00;;;;;;6220464;23;19996;-71
2023/02/14 10:16:22;;;;;;;14.97;8.07;;;9.50;69.70;;;;;;6246045;23;20378;-72
2023/02/14 10:19:02;;;;;;;12.70;8.30;;;9.70;69.20;;;;;;6245811;23;20062;-71
2023/02/14 10:21:35;;;;;;;69.77;44.17;;;9.80;68.10;;;;;;6246330;23;19996;-71
2023/02/14 10:24:14;;;;;;;26.83;17.67;;;9.90;67.50;;;;;;6246217;23;20007;-71
2023/02/14 10:26:41;;;;;;;17.90;8.87;;;10.00;67.40;;;;;;6246077;23;20004;-71
2023/02/14 10:29:13;;;;;;;12.10;7.87;;;10.10;67.10;;;;;;6246129;23;20015;-71
2023/02/14 10:32:00;;;;;;;13.18;8.35;;;10.20;66.30;;;;;;6245961;23;20079;-71
2023/02/14 10:34:31;;;;;;;12.90;8.37;;;10.30;65.90;;;;;;6245777;23;20392;-71
2023/02/14 10:37:34;;;;;;;12.60;7.90;;;10.40;65.30;;;;;;6246042;23;20004;-71
2023/02/14 10:40:21;;;;;;;16.17;8.20;;;10.40;65.20;;;;;;6246270;23;20004;-71
2023/02/14 10:43:05;;;;;;;12.83;8.90;;;10.50;64.40;;;;;;6245747;23;20231;-71
2023/02/14 10:45:59;;;;;;;16.53;8.33;;;10.60;64.00;;;;;;6245924;23;20000;-70
2023/02/14 10:48:43;;;;;;;14.00;9.37;;;10.80;63.50;;;;;;6240811;23;20311;-70
2023/02/14 10:51:34;;;;;;;15.30;9.03;;;10.90;62.90;;;;;;6245678;23;20008;-71
2023/02/14 10:54:24;;;;;;;15.33;8.83;;;11.00;62.60;;;;;;6245925;23;20083;-70
2023/02/14 10:57:06;;;;;;;20.33;9.67;;;11.10;62.20;;;;;;6246035;23;20004;-71
2023/02/14 11:00:02;;;;;;;16.13;9.67;;;11.20;61.40;;;;;;6245918;23;19996;-70
2023/02/14 11:02:41;;;;;;;16.67;9.10;;;11.30;61.20;;;;;;6229713;23;20004;-71
2023/02/14 11:05:24;;;;;;;14.85;9.50;;;11.40;60.70;;;;;;6219137;23;20398;-72
2023/02/14 11:07:50;;;;;;;16.98;10.63;;;11.50;60.40;;;;;;6245449;23;20077;-71
2023/02/14 11:10:19;;;;;;;15.55;9.75;;;11.60;60.50;;;;;;6245589;23;19996;-72
2023/02/14 11:12:45;;;;;;;15.05;9.68;;;11.70;59.80;;;;;;6245759;23;20014;-70
2023/02/14 11:15:39;;;;;;;18.48;10.40;;;11.80;59.50;;;;;;6246038;23;20020;-71
2023/02/14 11:18:22;;;;;;;15.18;9.65;;;11.90;58.60;;;;;;6245020;23;20453;-71
2023/02/14 11:21:09;;;;;;;15.55;9.90;;;12.00;58.10;;;;;;6245862;23;20000;-71
2023/02/14 11:23:47;;;;;;;13.93;8.85;;;12.10;58.20;;;;;;6245847;23;20079;-71
2023/02/14 11:26:20;;;;;;;15.85;9.55;;;12.10;57.90;;;;;;6245833;23;20004;-70
2023/02/14 11:28:51;;;;;;;16.30;9.20;;;12.20;57.80;;;;;;6245950;23;20015;-71
2023/02/14 11:31:31;;;;;;;15.57;8.95;;;12.30;57.60;;;;;;6245657;23;20306;-70
2023/02/14 11:33:57;;;;;;;15.18;8.95;;;12.30;57.30;;;;;;6245503;23;20453;-72
2023/02/14 11:36:24;;;;;;;17.20;9.32;;;12.40;57.30;;;;;;6245746;23;19997;-71
2023/02/14 11:39:22;;;;;;;16.77;8.68;;;12.50;57.10;;;;;;6245951;23;20012;-71
2023/02/14 11:41:51;;;;;;;16.20;9.65;;;12.60;56.80;;;;;;6204078;23;20004;-71
2023/02/14 11:44:23;;;;;;;16.13;9.35;;;12.70;55.90;;;;;;6245898;23;20015;-71
2023/02/14 11:46:54;;;;;;;18.58;8.80;;;12.80;55.30;;;;;;6245534;23;20322;-72
2023/02/14 11:49:27;;;;;;;15.25;9.38;;;12.90;54.70;;;;;;6245421;23;20038;-71
2023/02/14 11:51:53;;;;;;;13.93;8.35;;;13.00;54.70;;;;;;6245561;23;20296;-73
2023/02/14 11:54:37;;;;;;;13.95;8.13;;;13.10;54.80;;;;;;6245442;23;20011;-71
2023/02/14 11:57:27;;;;;;;13.90;8.15;;;13.20;54.70;;;;;;6245816;23;20334;-71
2023/02/14 11:59:55;;;;;;;13.93;8.07;;;13.30;54.70;;;;;;6245832;23;20005;-71
2023/02/14 12:02:37;;;;;;;15.35;8.60;;;13.40;54.50;;;;;;6245537;23;20027;-71
2023/02/14 12:05:29;;;;;;;15.70;8.05;;;13.40;54.20;;;;;;6245623;23;20011;-71
2023/02/14 12:08:01;;;;;;;13.38;8.18;;;13.50;54.10;;;;;;6245566;23;20079;-71
2023/02/14 12:10:34;;;;;;;11.85;7.65;;;13.60;53.90;;;;;;6245546;23;19996;-72
2023/02/14 12:13:00;;;;;;;11.63;8.23;;;13.70;53.90;;;;;;6245230;23;20004;-71
2023/02/14 12:15:35;;;;;;;13.73;8.40;;;13.70;53.60;;;;;;6245206;23;20007;-72
2023/02/14 12:18:49;;;;;;;12.80;8.25;;;13.80;53.90;;;;;;6217540;23;20023;-72
2023/02/14 12:21:26;;;;;;;13.73;8.13;;;13.80;53.70;;;;;;6234438;23;20008;-72
2023/02/14 12:24:39;;;;;;;13.27;8.32;;;13.90;53.70;;;;;;6245193;23;20008;-70
2023/02/14 12:27:22;;;;;;;14.27;7.35;;;14.00;53.60;;;;;;6122331;23;20056;-69
2023/02/14 12:30:06;;;;;;;13.82;8.55;;;14.00;53.10;;;;;;6245046;23;20184;-69
2023/02/14 12:32:32;;;;;;;14.07;9.05;;;14.10;52.40;;;;;;6246853;23;19996;-69
2023/02/14 12:35:12;;;;;;;17.33;8.15;;;14.20;52.40;;;;;;6246422;23;20008;-69
2023/02/14 12:38:03;;;;;;;19.27;8.93;;;14.20;52.90;;;;;;6246865;23;20012;-69
2023/02/14 12:40:53;;;;;;;13.13;8.48;;;14.30;52.40;;;;;;6247008;23;20004;-69
2023/02/14 12:43:33;;;;;;;16.02;9.52;;;14.30;52.50;;;;;;6246903;23;20001;-69
2023/02/14 12:46:27;;;;;;;19.15;10.80;;;14.40;53.00;;;;;;6247057;23;20000;-69
2023/02/14 12:49:11;;;;;;;20.48;11.93;;;14.40;52.60;;;;;;6246943;23;20382;-69
2023/02/14 12:51:49;;;;;;;19.02;10.60;;;14.50;51.80;;;;;;6244078;23;20011;-70
2023/02/14 12:54:36;;;;;;;15.57;10.60;;;14.60;51.50;;;;;;6243886;23;20000;-69
2023/02/14 12:57:25;;;;;;;16.38;10.40;;;14.60;51.40;;;;;;6244029;23;20000;-70
2023/02/14 13:00:11;;;;;;;17.48;11.02;;;14.70;52.20;;;;;;6246037;23;20003;-70
2023/02/14 13:02:51;;;;;;;19.80;11.57;;;14.80;52.60;;;;;;6247135;23;20430;-69
2023/02/14 13:05:44;;;;;;;18.70;11.48;;;14.80;52.00;;;;;;6246654;23;20015;-69
2023/02/14 13:08:13;;;;;;;17.33;11.13;;;14.90;51.70;;;;;;6246707;23;20039;-69
2023/02/14 13:10:53;;;;;;;20.65;12.05;;;15.00;51.40;;;;;;6246992;23;20011;-69
2023/02/14 13:13:22;;;;;;;20.67;11.23;;;15.00;51.60;;;;;;6246647;23;20300;-69
2023/02/14 13:16:03;;;;;;;25.83;11.85;;;15.00;51.00;;;;;;6246764;23;20010;-69
2023/02/14 13:18:34;;;;;;;18.08;11.43;;;15.00;50.90;;;;;;6245966;23;20019;-72
2023/02/14 13:21:03;;;;;;;21.40;11.90;;;15.10;50.50;;;;;;6246363;23;20008;-69
2023/02/14 13:23:51;;;;;;;20.92;11.50;;;15.10;49.70;;;;;;6246910;23;20063;-70